Arbutus, Maryland
Current Conditions -  °F | °C
As of 12:54 PM on Friday 28 Nov 2014 (Local Time) from KBWI Reporting Station
Scattered Clouds Scattered Clouds  
Wind Chill: 28°   Ceiling: Unl
Heat Index: 36°   Visibility: 10mi
Dew Point: 15°   Wind: 13mph
Humidity: 43%   Direction: 310°NW
Pressure: 30.26"   Gusts: 25mph
Location:  39.2187°N, 76.722°W
Report Text: KBWI 281754Z 31011G22KT 10SM SCT050 02/M09 A3026 RMK AO2 SLP249 T00221094 10039 21011 58012
Loading
Personal Weather Stations






























Interactive Weather Map New forecast layout! Learn more

10-Day Weather Forecast

Advertisements
Track Severe Weather on mobile